PWSweather.com
Personal Weather Stations
Station Observations
KCAOCEAN4
Jeffries Ranch, Oceanside, CA 92057

Jeffries RanchOceanside, CA 92057

Lat: 33.2463208, Lon: -117.25335080000002

Elevation: 207

Station Type: Davis Vantage Vue

Latest ConditionsUpdated 10:53:03 AM PDT Thursday, May 23, 2019
Currently Today's Max Today's Min Today's Average
Temperature 57.6°F14.2°C 59.5°F15.3°C 51.3°F10.7°C 55.6°F13.1°C
Dew Point 55.0°F12.8°C 55.4°F13.0°C 48.0°F8.9°C 52.2°F11.2°C
Winds 2.0 mph W3.2 kmh W 4.9 mph -7.9 kmh - - 1.5 mph 2.4 kmh
Wind Gusts 4.9 mph7.9 kmh 12.1 mph19.5 kmh - -
Humidity 91% 93% 82% 88%
Pressure 29.96 in1014.6 mb 29.96 in1014.6 mb 29.80 in1009.1 mb -
Precipitation - 0.02 in0.5 mm - -
Hour Temp Dew Point Humidity Winds Wind Gusts Pressure Precip Precip Rate Daily Precip Total
10:53 AM 57.6°F14.2°C 55.0°F12.8°C 91% 2.0 mph W3.2 kmh W 4.9 mph7.9 kmh 29.96 in1014.6 mb 0.02 in0.5 mm 0.00 in0.0 mm 0.02 in0.5 mm
10:43 AM 57.4°F14.1°C 55.4°F13.0°C 93% 0.9 mph WSW1.4 kmh WSW 4.0 mph6.4 kmh 29.95 in1014.2 mb 0.02 in0.5 mm 0.00 in0.0 mm 0.02 in0.5 mm
10:33 AM 56.8°F13.8°C 54.5°F12.5°C 92% 2.0 mph WSW3.2 kmh WSW 4.9 mph7.9 kmh 29.95 in1014.2 mb 0.02 in0.5 mm 0.00 in0.0 mm 0.02 in0.5 mm
10:23 AM 56.7°F13.7°C 54.1°F12.3°C 91% 4.0 mph SW6.4 kmh SW 10.1 mph16.3 kmh 29.94 in1013.9 mb 0.02 in0.5 mm 0.00 in0.0 mm 0.02 in0.5 mm
10:13 AM 56.8°F13.8°C 54.0°F12.2°C 90% 4.9 mph S7.9 kmh S 12.1 mph19.5 kmh 29.94 in1013.9 mb 0.02 in0.5 mm 0.06 in1.5 mm 0.02 in0.5 mm
10:03 AM 57.7°F14.3°C 54.5°F12.5°C 89% 2.0 mph WSW3.2 kmh WSW 8.1 mph13.0 kmh 29.94 in1013.9 mb 0.01 in0.3 mm 0.01 in0.3 mm 0.01 in0.3 mm
09:53 AM 58.3°F14.6°C 54.5°F12.5°C 87% 2.9 mph WSW4.7 kmh WSW 9.0 mph14.5 kmh 29.93 in1013.5 mb 0.00 in0.0 mm 0.00 in0.0 mm 0.00 in0.0 mm
09:43 AM 59.2°F15.1°C 54.3°F12.4°C 84% 2.9 mph WSW4.7 kmh WSW 8.9 mph14.3 kmh 29.93 in1013.5 mb 0.00 in0.0 mm 0.00 in0.0 mm 0.00 in0.0 mm
09:33 AM 59.0°F15.0°C 53.8°F12.1°C 83% 4.0 mph SW6.4 kmh SW 11.0 mph17.7 kmh 29.93 in1013.5 mb 0.00 in0.0 mm 0.00 in0.0 mm 0.00 in0.0 mm
09:22 AM 59.4°F15.2°C 54.1°F12.3°C 83% 4.0 mph WSW6.4 kmh WSW 8.9 mph14.3 kmh 29.92 in1013.2 mb 0.00 in0.0 mm 0.00 in0.0 mm 0.00 in0.0 mm
09:12 AM 59.5°F15.3°C 54.0°F12.2°C 82% 4.0 mph SW6.4 kmh SW 11.0 mph17.7 kmh 29.92 in1013.2 mb 0.00 in0.0 mm 0.00 in0.0 mm 0.00 in0.0 mm
09:02 AM 59.4°F15.2°C 54.1°F12.3°C 83% 4.0 mph SSW6.4 kmh SSW 11.0 mph17.7 kmh 29.91 in1012.9 mb 0.00 in0.0 mm 0.00 in0.0 mm 0.00 in0.0 mm
08:52 AM 58.6°F14.8°C 53.8°F12.1°C 84% 2.9 mph W4.7 kmh W 12.1 mph19.5 kmh 29.91 in1012.9 mb 0.00 in0.0 mm 0.00 in0.0 mm 0.00 in0.0 mm
08:42 AM 58.6°F14.8°C 54.5°F12.5°C 86% 2.9 mph SSW4.7 kmh SSW 6.0 mph9.7 kmh 29.90 in1012.5 mb 0.00 in0.0 mm 0.00 in0.0 mm 0.00 in0.0 mm
08:32 AM 58.8°F14.9°C 54.3°F12.4°C 85% 2.9 mph WSW4.7 kmh WSW 8.1 mph13.0 kmh 29.90 in1012.5 mb 0.00 in0.0 mm 0.00 in0.0 mm 0.00 in0.0 mm
08:22 AM 58.8°F14.9°C 54.3°F12.4°C 85% 2.9 mph SW4.7 kmh SW 8.9 mph14.3 kmh 29.89 in1012.2 mb 0.00 in0.0 mm 0.00 in0.0 mm 0.00 in0.0 mm
08:12 AM 58.6°F14.8°C 54.1°F12.3°C 85% 2.9 mph SW4.7 kmh SW 8.9 mph14.3 kmh 29.89 in1012.2 mb 0.00 in0.0 mm 0.00 in0.0 mm 0.00 in0.0 mm
08:02 AM 58.8°F14.9°C 54.3°F12.4°C 85% 4.0 mph SSW6.4 kmh SSW 9.0 mph14.5 kmh 29.88 in1011.9 mb 0.00 in0.0 mm 0.00 in0.0 mm 0.00 in0.0 mm
07:52 AM 59.2°F15.1°C 54.3°F12.4°C 84% 2.9 mph E4.7 kmh E 8.1 mph13.0 kmh 29.88 in1011.9 mb 0.00 in0.0 mm 0.00 in0.0 mm 0.00 in0.0 mm
07:42 AM 58.6°F14.8°C 54.1°F12.3°C 85% 4.0 mph SE6.4 kmh SE 11.0 mph17.7 kmh 29.88 in1011.9 mb 0.00 in0.0 mm 0.00 in0.0 mm 0.00 in0.0 mm
07:32 AM 58.3°F14.6°C 53.8°F12.1°C 85% 4.0 mph S6.4 kmh S 8.1 mph13.0 kmh 29.88 in1011.9 mb 0.00 in0.0 mm 0.00 in0.0 mm 0.00 in0.0 mm
07:22 AM 57.9°F14.4°C 53.8°F12.1°C 86% 2.9 mph S4.7 kmh S 6.0 mph9.7 kmh 29.88 in1011.9 mb 0.00 in0.0 mm 0.00 in0.0 mm 0.00 in0.0 mm
07:12 AM 57.7°F14.3°C 54.1°F12.3°C 88% 0.9 mph ESE1.4 kmh ESE 2.9 mph4.7 kmh 29.88 in1011.9 mb 0.00 in0.0 mm 0.00 in0.0 mm 0.00 in0.0 mm
07:02 AM 56.8°F13.8°C 53.2°F11.8°C 88% Calm Calm 2.9 mph4.7 kmh 29.87 in1011.5 mb 0.00 in0.0 mm 0.00 in0.0 mm 0.00 in0.0 mm
06:52 AM 56.8°F13.8°C 53.2°F11.8°C 88% 2.0 mph SW3.2 kmh SW 6.0 mph9.7 kmh 29.86 in1011.2 mb 0.00 in0.0 mm 0.00 in0.0 mm 0.00 in0.0 mm
06:42 AM 56.7°F13.7°C 53.4°F11.9°C 89% 2.9 mph SSE4.7 kmh SSE 9.0 mph14.5 kmh 29.85 in1010.8 mb 0.00 in0.0 mm 0.00 in0.0 mm 0.00 in0.0 mm
06:32 AM 56.5°F13.6°C 53.2°F11.8°C 89% 2.0 mph SE3.2 kmh SE 4.9 mph7.9 kmh 29.85 in1010.8 mb 0.00 in0.0 mm 0.00 in0.0 mm 0.00 in0.0 mm
06:22 AM 56.1°F13.4°C 52.9°F11.6°C 89% 2.0 mph SE3.2 kmh SE 6.0 mph9.7 kmh 29.85 in1010.8 mb 0.00 in0.0 mm 0.00 in0.0 mm 0.00 in0.0 mm
06:12 AM 56.1°F13.4°C 52.9°F11.6°C 89% 2.0 mph SE3.2 kmh SE 4.9 mph7.9 kmh 29.85 in1010.8 mb 0.00 in0.0 mm 0.00 in0.0 mm 0.00 in0.0 mm
06:02 AM 55.9°F13.3°C 52.7°F11.5°C 89% 2.0 mph ESE3.2 kmh ESE 7.0 mph11.3 kmh 29.84 in1010.5 mb 0.00 in0.0 mm 0.00 in0.0 mm 0.00 in0.0 mm
05:52 AM 56.1°F13.4°C 52.7°F11.5°C 88% 2.0 mph SE3.2 kmh SE 4.9 mph7.9 kmh 29.84 in1010.5 mb 0.00 in0.0 mm 0.00 in0.0 mm 0.00 in0.0 mm
05:42 AM 55.9°F13.3°C 52.7°F11.5°C 89% 0.9 mph ESE1.4 kmh ESE 2.9 mph4.7 kmh 29.84 in1010.5 mb 0.00 in0.0 mm 0.00 in0.0 mm 0.00 in0.0 mm
05:32 AM 55.9°F13.3°C 52.7°F11.5°C 89% 0.9 mph SE1.4 kmh SE 3.0 mph4.8 kmh 29.84 in1010.5 mb 0.00 in0.0 mm 0.00 in0.0 mm 0.00 in0.0 mm
05:22 AM 55.8°F13.2°C 52.9°F11.6°C 90% Calm Calm -- 29.84 in1010.5 mb 0.00 in0.0 mm 0.00 in0.0 mm 0.00 in0.0 mm
05:12 AM 55.8°F13.2°C 52.5°F11.4°C 89% Calm Calm -- 29.84 in1010.5 mb 0.00 in0.0 mm 0.00 in0.0 mm 0.00 in0.0 mm
05:02 AM 55.9°F13.3°C 52.7°F11.5°C 89% Calm Calm 0.9 mph1.4 kmh 29.83 in1010.2 mb 0.00 in0.0 mm 0.00 in0.0 mm 0.00 in0.0 mm
04:52 AM 55.9°F13.3°C 52.7°F11.5°C 89% 2.0 mph SE3.2 kmh SE 4.9 mph7.9 kmh 29.83 in1010.2 mb 0.00 in0.0 mm 0.00 in0.0 mm 0.00 in0.0 mm
04:42 AM 56.1°F13.4°C 53.2°F11.8°C 90% 2.0 mph SE3.2 kmh SE 6.0 mph9.7 kmh 29.83 in1010.2 mb 0.00 in0.0 mm 0.00 in0.0 mm 0.00 in0.0 mm
04:32 AM 56.1°F13.4°C 53.2°F11.8°C 90% 2.0 mph SSE3.2 kmh SSE 6.0 mph9.7 kmh 29.83 in1010.2 mb 0.00 in0.0 mm 0.00 in0.0 mm 0.00 in0.0 mm
04:22 AM 55.9°F13.3°C 53.4°F11.9°C 91% 2.0 mph SSE3.2 kmh SSE 6.0 mph9.7 kmh 29.83 in1010.2 mb 0.00 in0.0 mm 0.00 in0.0 mm 0.00 in0.0 mm
04:12 AM 55.8°F13.2°C 53.2°F11.8°C 91% 0.9 mph SE1.4 kmh SE 4.9 mph7.9 kmh 29.83 in1010.2 mb 0.00 in0.0 mm 0.00 in0.0 mm 0.00 in0.0 mm
04:02 AM 55.6°F13.1°C 52.7°F11.5°C 90% Calm Calm 2.0 mph3.2 kmh 29.83 in1010.2 mb 0.00 in0.0 mm 0.00 in0.0 mm 0.00 in0.0 mm
03:52 AM 55.4°F13.0°C 52.5°F11.4°C 90% Calm Calm -- 29.83 in1010.2 mb 0.00 in0.0 mm 0.00 in0.0 mm 0.00 in0.0 mm
03:42 AM 55.2°F12.9°C 52.3°F11.3°C 90% Calm Calm -- 29.82 in1009.8 mb 0.00 in0.0 mm 0.00 in0.0 mm 0.00 in0.0 mm
03:32 AM 55.2°F12.9°C 52.3°F11.3°C 90% Calm Calm -- 29.82 in1009.8 mb 0.00 in0.0 mm 0.00 in0.0 mm 0.00 in0.0 mm
03:22 AM 55.2°F12.9°C 52.3°F11.3°C 90% Calm Calm 2.0 mph3.2 kmh 29.82 in1009.8 mb 0.00 in0.0 mm 0.00 in0.0 mm 0.00 in0.0 mm
03:12 AM 55.2°F12.9°C 52.3°F11.3°C 90% Calm Calm 2.0 mph3.2 kmh 29.81 in1009.5 mb 0.00 in0.0 mm 0.00 in0.0 mm 0.00 in0.0 mm
03:02 AM 54.9°F12.7°C 52.3°F11.3°C 91% Calm Calm 2.0 mph3.2 kmh 29.81 in1009.5 mb 0.00 in0.0 mm 0.00 in0.0 mm 0.00 in0.0 mm
02:52 AM 54.0°F12.2°C 51.6°F10.9°C 92% Calm Calm 2.9 mph4.7 kmh 29.81 in1009.5 mb 0.00 in0.0 mm 0.00 in0.0 mm 0.00 in0.0 mm
02:42 AM 53.2°F11.8°C 50.9°F10.5°C 92% Calm Calm 2.0 mph3.2 kmh 29.81 in1009.5 mb 0.00 in0.0 mm 0.00 in0.0 mm 0.00 in0.0 mm
02:32 AM 52.0°F11.1°C 49.6°F9.8°C 92% Calm Calm -- 29.81 in1009.5 mb 0.00 in0.0 mm 0.00 in0.0 mm 0.00 in0.0 mm
02:22 AM 51.4°F10.8°C 49.3°F9.6°C 92% Calm Calm -- 29.81 in1009.5 mb 0.00 in0.0 mm 0.00 in0.0 mm 0.00 in0.0 mm
02:12 AM 51.3°F10.7°C 48.7°F9.3°C 91% Calm Calm -- 29.80 in1009.1 mb 0.00 in0.0 mm 0.00 in0.0 mm 0.00 in0.0 mm
02:02 AM 51.3°F10.7°C 48.7°F9.3°C 91% Calm Calm 1.0 mph1.6 kmh 29.81 in1009.5 mb 0.00 in0.0 mm 0.00 in0.0 mm 0.00 in0.0 mm
01:52 AM 51.3°F10.7°C 48.4°F9.1°C 90% Calm Calm -- 29.81 in1009.5 mb 0.00 in0.0 mm 0.00 in0.0 mm 0.00 in0.0 mm
01:42 AM 51.4°F10.8°C 48.6°F9.2°C 90% Calm Calm -- 29.81 in1009.5 mb 0.00 in0.0 mm 0.00 in0.0 mm 0.00 in0.0 mm
01:32 AM 51.3°F10.7°C 48.4°F9.1°C 90% Calm Calm -- 29.81 in1009.5 mb 0.00 in0.0 mm 0.00 in0.0 mm 0.00 in0.0 mm
01:22 AM 51.4°F10.8°C 48.6°F9.2°C 90% Calm Calm 2.0 mph3.2 kmh 29.81 in1009.5 mb 0.00 in0.0 mm 0.00 in0.0 mm 0.00 in0.0 mm
01:12 AM 51.6°F10.9°C 48.6°F9.2°C 89% Calm Calm 0.9 mph1.4 kmh 29.81 in1009.5 mb 0.00 in0.0 mm 0.00 in0.0 mm 0.00 in0.0 mm
01:02 AM 51.6°F10.9°C 48.6°F9.2°C 89% Calm Calm 2.0 mph3.2 kmh 29.81 in1009.5 mb 0.00 in0.0 mm 0.00 in0.0 mm 0.00 in0.0 mm
12:52 AM 51.6°F10.9°C 48.6°F9.2°C 89% 0.9 mph NE1.4 kmh NE 2.0 mph3.2 kmh 29.81 in1009.5 mb 0.00 in0.0 mm 0.00 in0.0 mm 0.00 in0.0 mm
12:42 AM 51.8°F11.0°C 48.4°F9.1°C 88% 0.9 mph ENE1.4 kmh ENE 2.9 mph4.7 kmh 29.81 in1009.5 mb 0.00 in0.0 mm 0.00 in0.0 mm 0.00 in0.0 mm
12:32 AM 51.6°F10.9°C 48.2°F9.0°C 88% 0.9 mph E1.4 kmh E 4.0 mph6.4 kmh 29.81 in1009.5 mb 0.00 in0.0 mm 0.00 in0.0 mm 0.00 in0.0 mm
12:22 AM 51.4°F10.8°C 48.0°F8.9°C 88% 0.9 mph ENE1.4 kmh ENE 4.0 mph6.4 kmh 29.82 in1009.8 mb 0.00 in0.0 mm 0.00 in0.0 mm 0.00 in0.0 mm
12:12 AM 51.4°F10.8°C 48.0°F8.9°C 88% Calm Calm -- 29.82 in1009.8 mb 0.00 in0.0 mm 0.00 in0.0 mm 0.00 in0.0 mm
12:02 AM 51.4°F10.8°C 48.0°F8.9°C 88% Calm Calm -- 29.82 in1009.8 mb 0.00 in0.0 mm 0.00 in0.0 mm 0.00 in0.0 mm